createdAt,value
2023-05-13T00:00:31.735Z,100280.53
2023-05-13T00:02:58.465Z,100288.03
2023-05-13T00:09:45.976Z,100280.13
2023-05-13T00:12:32.432Z,100284.22
2023-05-13T00:15:14.157Z,100278.56
2023-05-13T00:17:40.733Z,100283.22
2023-05-13T00:20:07.983Z,100282.19
2023-05-13T00:22:34.545Z,100269.50
2023-05-13T00:25:19.845Z,100272.25
2023-05-13T00:27:46.430Z,100289.28
2023-05-13T00:30:13.240Z,100281.63
2023-05-13T00:32:39.793Z,100284.09
2023-05-13T00:35:06.610Z,100281.44
2023-05-13T00:38:31.273Z,100285.81
2023-05-13T00:41:28.107Z,100284.97
2023-05-13T00:43:56.829Z,100288.16
2023-05-13T00:46:24.615Z,100286.53
2023-05-13T00:48:51.950Z,100289.28
2023-05-13T00:51:18.807Z,100285.97
2023-05-13T00:53:45.571Z,100292.75
2023-05-13T00:58:47.677Z,100290.25
2023-05-13T01:01:45.000Z,100300.97
2023-05-13T01:04:27.452Z,100299.09
2023-05-13T01:11:05.949Z,100292.72
2023-05-13T01:13:36.996Z,100301.28
2023-05-13T01:16:25.772Z,100297.47
2023-05-13T01:19:05.584Z,100301.59
2023-05-13T01:21:36.319Z,100299.78
2023-05-13T01:24:02.872Z,100299.53
2023-05-13T01:26:29.559Z,100297.69
2023-05-13T01:28:56.279Z,100306.25
2023-05-13T01:31:24.114Z,100301.72
2023-05-13T01:33:51.118Z,100299.38
2023-05-13T01:37:08.722Z,100301.25
2023-05-13T01:40:28.058Z,100299.44
2023-05-13T01:42:58.252Z,100304.06
2023-05-13T01:45:24.810Z,100309.00
2023-05-13T01:47:51.369Z,100307.31
2023-05-13T01:50:17.977Z,100302.50
2023-05-13T01:52:44.537Z,100304.94
2023-05-13T01:55:29.295Z,100305.25
2023-05-13T01:57:55.867Z,100301.09
2023-05-13T02:00:22.888Z,100305.91
2023-05-13T02:02:49.724Z,100316.59
2023-05-13T02:09:29.764Z,100314.91
2023-05-13T02:11:56.330Z,100312.06
2023-05-13T02:14:22.877Z,100310.06
2023-05-13T02:16:49.543Z,100309.25
2023-05-13T02:19:16.187Z,100302.97
2023-05-13T02:21:43.683Z,100307.69
2023-05-13T02:24:10.585Z,100308.88
2023-05-13T02:26:37.235Z,100315.16
2023-05-13T02:29:03.755Z,100305.41
2023-05-13T02:31:30.321Z,100313.91
2023-05-13T02:33:56.848Z,100312.03
2023-05-13T02:36:45.511Z,100309.31
2023-05-13T02:39:31.053Z,100317.91
2023-05-13T02:41:57.965Z,100314.50
2023-05-13T02:44:24.498Z,100319.81
2023-05-13T02:46:51.407Z,100317.03
2023-05-13T02:49:17.941Z,100323.16
2023-05-13T02:51:44.532Z,100325.41
2023-05-13T02:57:12.690Z,100327.63
2023-05-13T02:59:39.241Z,100324.50
2023-05-13T03:02:06.056Z,100322.66
2023-05-13T03:04:32.591Z,100316.75
2023-05-13T03:06:59.129Z,100322.88
2023-05-13T03:09:44.702Z,100323.38
2023-05-13T03:15:45.991Z,100329.72
2023-05-13T03:18:12.729Z,100328.47
2023-05-13T03:20:39.387Z,100331.81
2023-05-13T03:23:07.003Z,100326.00
2023-05-13T03:25:48.759Z,100334.38
2023-05-13T03:28:15.444Z,100338.50
2023-05-13T03:30:42.626Z,100340.91
2023-05-13T03:33:09.409Z,100336.19
2023-05-13T03:35:36.008Z,100336.78
2023-05-13T03:38:02.536Z,100346.09
2023-05-13T03:40:47.660Z,100344.44
2023-05-13T03:43:14.300Z,100347.75
2023-05-13T03:45:40.973Z,100349.09
2023-05-13T03:48:07.521Z,100349.37
2023-05-13T03:51:31.214Z,100349.09
2023-05-13T03:57:01.773Z,100355.50
2023-05-13T03:59:28.327Z,100358.00
2023-05-13T04:01:57.822Z,100358.81
2023-05-13T04:04:24.562Z,100355.75
2023-05-13T04:06:51.146Z,100359.94
2023-05-13T04:09:32.954Z,100357.25
2023-05-13T04:11:59.504Z,100359.41
2023-05-13T04:14:26.165Z,100371.94
2023-05-13T04:16:52.732Z,100362.69
2023-05-13T04:19:53.490Z,100368.34
2023-05-13T04:25:58.178Z,100360.31
2023-05-13T04:28:24.783Z,100371.84
2023-05-13T04:30:51.329Z,100381.06
2023-05-13T04:33:17.895Z,100378.44
2023-05-13T04:35:44.677Z,100379.16
2023-05-13T04:38:11.927Z,100386.41
2023-05-13T04:40:50.644Z,100383.28
2023-05-13T04:43:17.155Z,100385.69
2023-05-13T04:45:47.036Z,100388.53
2023-05-13T04:48:13.690Z,100378.16
2023-05-13T04:54:23.270Z,100382.56
2023-05-13T04:59:42.722Z,100397.28
2023-05-13T05:02:09.435Z,100399.81
2023-05-13T05:04:36.576Z,100402.53
2023-05-13T05:07:03.184Z,100399.81
2023-05-13T05:09:30.322Z,100402.50
2023-05-13T05:11:57.079Z,100404.69
2023-05-13T05:14:23.656Z,100404.28
2023-05-13T05:16:50.408Z,100400.31
2023-05-13T05:33:56.787Z,100418.28
2023-05-13T05:36:27.883Z,100418.31
2023-05-13T05:39:10.990Z,100422.09
2023-05-13T05:41:37.575Z,100433.91
2023-05-13T05:44:04.198Z,100428.22
2023-05-13T05:46:31.621Z,100424.88
2023-05-13T05:50:00.754Z,100420.72
2023-05-13T05:53:22.692Z,100421.03
2023-05-13T05:55:51.129Z,100410.75
2023-05-13T05:58:18.989Z,100413.03
2023-05-13T06:00:45.783Z,100416.75
2023-05-13T06:03:12.527Z,100424.97
2023-05-13T06:05:39.555Z,100424.38
2023-05-13T06:08:06.257Z,100428.19
2023-05-13T06:10:32.884Z,100429.00
2023-05-13T06:12:59.383Z,100433.00
2023-05-13T06:15:26.199Z,100430.31
2023-05-13T06:17:52.859Z,100428.94
2023-05-13T06:20:19.816Z,100428.78
2023-05-13T06:22:46.574Z,100430.09
2023-05-13T06:25:13.157Z,100430.88
2023-05-13T06:27:42.326Z,100434.16
2023-05-13T06:30:09.046Z,100429.81
2023-05-13T06:32:35.664Z,100430.16
2023-05-13T06:35:02.598Z,100425.91
2023-05-13T06:37:29.136Z,100432.88
2023-05-13T06:40:11.520Z,100436.91
2023-05-13T06:42:40.549Z,100433.09
2023-05-13T06:45:08.506Z,100435.44
2023-05-13T06:47:35.809Z,100442.44
2023-05-13T06:50:30.525Z,100434.78
2023-05-13T06:53:17.114Z,100433.41
2023-05-13T06:55:43.754Z,100432.44
2023-05-13T06:58:10.664Z,100424.06
2023-05-13T07:00:38.585Z,100431.28
2023-05-13T07:03:06.776Z,100436.09
2023-05-13T07:05:34.318Z,100438.03
2023-05-13T07:08:21.362Z,100437.22
2023-05-13T07:10:47.951Z,100434.75
2023-05-13T07:13:14.595Z,100424.75
2023-05-13T07:15:41.253Z,100428.31
2023-05-13T07:18:09.147Z,100425.50
2023-05-13T07:37:52.976Z,100442.34
2023-05-13T07:40:21.186Z,100445.62
2023-05-13T07:42:48.182Z,100446.34
2023-05-13T07:45:14.766Z,100449.41
2023-05-13T07:47:44.255Z,100442.84
2023-05-13T07:50:11.779Z,100450.03
2023-05-13T07:52:38.661Z,100445.19
2023-05-13T07:55:06.007Z,100448.00
2023-05-13T07:57:32.604Z,100443.44
2023-05-13T08:05:19.652Z,100454.78
2023-05-13T08:10:22.013Z,100461.31
2023-05-13T08:12:53.554Z,100467.31
2023-05-13T08:15:21.004Z,100470.59
2023-05-13T08:17:47.811Z,100474.78
2023-05-13T08:20:15.252Z,100470.72
2023-05-13T08:22:42.977Z,100474.56
2023-05-13T08:25:13.355Z,100482.78
2023-05-13T08:27:39.919Z,100479.81
2023-05-13T08:30:07.302Z,100477.31
2023-05-13T08:32:34.216Z,100485.97
2023-05-13T08:35:01.392Z,100496.00
2023-05-13T08:37:28.376Z,100491.63
2023-05-13T08:39:56.558Z,100498.97
2023-05-13T08:53:13.808Z,100482.75
2023-05-13T08:55:40.561Z,100488.84
2023-05-13T08:58:07.878Z,100492.59
2023-05-13T09:00:35.187Z,100487.81
2023-05-13T09:03:05.165Z,100485.59
2023-05-13T09:05:37.760Z,100487.03
2023-05-13T09:08:09.562Z,100484.22
2023-05-13T09:10:37.434Z,100486.53
2023-05-13T09:13:04.876Z,100485.97
2023-05-13T09:15:32.195Z,100484.06
2023-05-13T09:18:01.235Z,100489.66
2023-05-13T09:20:28.289Z,100490.25
2023-05-13T09:23:07.094Z,100489.66
2023-05-13T09:25:34.804Z,100484.63
2023-05-13T09:28:03.816Z,100493.25
2023-05-13T09:30:35.219Z,100483.94
2023-05-13T09:33:13.514Z,100491.00
2023-05-13T09:35:41.427Z,100496.12
2023-05-13T09:40:59.793Z,100496.06
2023-05-13T09:43:27.556Z,100500.63
2023-05-13T09:45:55.885Z,100498.44
2023-05-13T09:48:27.060Z,100496.28
2023-05-13T09:50:55.388Z,100493.38
2023-05-13T09:53:22.290Z,100493.38
2023-05-13T09:55:51.765Z,100485.13
2023-05-13T09:58:22.113Z,100485.34
2023-05-13T10:09:10.409Z,100485.13
2023-05-13T10:11:37.124Z,100491.28
2023-05-13T10:14:06.564Z,100476.06
2023-05-13T10:16:33.709Z,100483.66
2023-05-13T10:19:01.009Z,100472.75
2023-05-13T10:21:28.192Z,100474.47
2023-05-13T10:23:59.423Z,100481.69
2023-05-13T10:26:26.428Z,100479.75
2023-05-13T10:40:02.784Z,100481.81
2023-05-13T10:42:55.376Z,100484.25
2023-05-13T10:45:32.187Z,100489.16
2023-05-13T10:48:07.065Z,100491.41
2023-05-13T10:50:36.937Z,100489.88
2023-05-13T10:53:09.093Z,100489.72
2023-05-13T10:55:47.174Z,100486.66
2023-05-13T10:58:15.267Z,100483.63
2023-05-13T11:00:51.454Z,100489.84
2023-05-13T11:03:18.189Z,100486.88
2023-05-13T11:05:47.397Z,100484.87
2023-05-13T11:08:36.182Z,100487.19
2023-05-13T11:11:21.015Z,100485.56
2023-05-13T11:13:53.234Z,100477.59
2023-05-13T11:16:21.123Z,100489.91
2023-05-13T11:18:49.189Z,100478.66
2023-05-13T11:21:16.568Z,100479.59
2023-05-13T11:23:56.788Z,100477.81
2023-05-13T11:26:23.781Z,100478.28
2023-05-13T11:28:58.146Z,100485.19
2023-05-13T11:31:27.260Z,100488.75
2023-05-13T11:34:13.271Z,100484.41
2023-05-13T11:36:47.680Z,100487.75
2023-05-13T11:50:57.179Z,100489.81
2023-05-13T11:53:25.788Z,100475.78
2023-05-13T11:55:52.483Z,100486.94
2023-05-13T11:58:21.737Z,100491.41
2023-05-13T12:00:48.355Z,100486.44
2023-05-13T12:03:16.323Z,100484.13
2023-05-13T12:05:44.689Z,100491.97
2023-05-13T12:08:11.768Z,100492.38
2023-05-13T12:10:45.600Z,100485.88
2023-05-13T12:13:12.993Z,100483.69
2023-05-13T12:15:40.457Z,100495.06
2023-05-13T12:18:07.669Z,100488.78
2023-05-13T12:20:34.893Z,100498.06
2023-05-13T12:23:02.226Z,100500.00
2023-05-13T12:25:38.348Z,100497.34
2023-05-13T12:30:42.234Z,100501.00
2023-05-13T12:33:16.699Z,100504.38
2023-05-13T12:35:44.123Z,100491.25
2023-05-13T12:38:16.743Z,100510.97
2023-05-13T12:40:44.691Z,100503.00
2023-05-13T12:43:12.816Z,100497.72
2023-05-13T12:45:42.618Z,100502.75
2023-05-13T12:48:12.824Z,100498.16
2023-05-13T12:50:39.565Z,100503.44
2023-05-13T12:53:15.126Z,100505.50
2023-05-13T12:55:41.808Z,100495.91
2023-05-13T13:00:43.814Z,100504.69
2023-05-13T13:03:12.707Z,100501.59
2023-05-13T13:05:42.059Z,100492.53
2023-05-13T13:08:08.696Z,100493.69
2023-05-13T13:10:35.292Z,100494.69
2023-05-13T13:13:02.580Z,100491.09
2023-05-13T13:15:29.160Z,100492.62
2023-05-13T13:20:30.986Z,100497.22
2023-05-13T13:22:59.797Z,100495.63
2023-05-13T13:25:29.071Z,100497.13
2023-05-13T13:27:56.190Z,100489.28
2023-05-13T13:30:22.874Z,100498.16
2023-05-13T13:32:51.228Z,100497.75
2023-05-13T13:35:21.072Z,100493.78
2023-05-13T13:37:48.037Z,100489.19
2023-05-13T13:40:14.770Z,100492.03
2023-05-13T13:42:45.031Z,100500.59
2023-05-13T13:45:14.438Z,100500.31
2023-05-13T13:56:22.338Z,100491.28
2023-05-13T13:58:51.764Z,100490.91
2023-05-13T14:01:20.079Z,100483.97
2023-05-13T14:03:55.089Z,100486.09
2023-05-13T14:06:29.514Z,100481.88
2023-05-13T14:09:01.345Z,100484.16
2023-05-13T14:11:27.944Z,100473.53
2023-05-13T14:14:00.618Z,100471.47
2023-05-13T14:16:27.300Z,100476.81
2023-05-13T14:18:56.989Z,100473.81
2023-05-13T14:21:23.731Z,100472.09
2023-05-13T14:23:50.424Z,100466.53
2023-05-13T14:26:17.152Z,100460.59
2023-05-13T14:28:44.121Z,100463.44
2023-05-13T14:31:13.034Z,100458.84
2023-05-13T14:33:39.773Z,100462.19
2023-05-13T14:36:21.457Z,100455.84
2023-05-13T14:38:48.669Z,100454.50
2023-05-13T14:41:19.874Z,100457.09
2023-05-13T14:43:52.994Z,100455.91
2023-05-13T14:46:19.599Z,100454.66
2023-05-13T14:48:46.696Z,100452.69
2023-05-13T14:51:13.708Z,100447.03
2023-05-13T14:53:42.344Z,100462.19
2023-05-13T14:56:08.953Z,100448.84
2023-05-13T14:58:36.245Z,100449.56
2023-05-13T15:01:02.913Z,100443.78
2023-05-13T15:03:29.605Z,100454.63
2023-05-13T15:06:07.080Z,100453.69
2023-05-13T15:08:33.829Z,100448.75
2023-05-13T15:11:09.298Z,100451.59
2023-05-13T15:13:44.106Z,100457.78
2023-05-13T15:16:11.542Z,100448.19
2023-05-13T15:18:39.689Z,100442.62
2023-05-13T15:23:47.932Z,100442.66
2023-05-13T15:26:15.567Z,100449.44
2023-05-13T15:28:42.138Z,100448.59
2023-05-13T15:31:08.806Z,100458.84
2023-05-13T15:33:35.555Z,100454.44
2023-05-13T15:41:25.899Z,100462.81
2023-05-13T15:43:52.528Z,100453.94
2023-05-13T15:46:19.364Z,100460.22
2023-05-13T15:48:53.813Z,100462.09
2023-05-13T15:51:25.084Z,100463.91
2023-05-13T15:53:52.831Z,100459.12
2023-05-13T15:56:21.616Z,100461.59
2023-05-13T15:58:48.171Z,100462.72
2023-05-13T16:01:14.744Z,100455.34
2023-05-13T16:03:41.367Z,100465.31
2023-05-13T16:06:08.001Z,100463.87
2023-05-13T16:08:34.635Z,100469.69
2023-05-13T16:11:01.192Z,100464.88
2023-05-13T16:13:27.776Z,100466.31
2023-05-13T16:15:54.524Z,100469.88
2023-05-13T16:18:21.310Z,100461.28
2023-05-13T16:20:47.980Z,100464.03
2023-05-13T16:23:14.565Z,100461.00
2023-05-13T16:25:42.620Z,100455.56
2023-05-13T16:28:10.854Z,100448.84
2023-05-13T16:30:37.770Z,100455.16
2023-05-13T16:33:04.567Z,100446.78
2023-05-13T16:35:31.184Z,100442.78
2023-05-13T16:37:57.753Z,100446.97
2023-05-13T16:40:24.694Z,100446.44
2023-05-13T16:42:51.603Z,100448.97
2023-05-13T16:45:18.286Z,100442.62
2023-05-13T16:47:44.985Z,100450.44
2023-05-13T16:50:11.573Z,100448.50
2023-05-13T16:52:38.190Z,100448.13
2023-05-13T16:55:05.538Z,100450.69
2023-05-13T16:57:32.673Z,100440.47
2023-05-13T16:59:59.230Z,100435.78
2023-05-13T17:02:27.290Z,100426.25
2023-05-13T17:04:53.950Z,100420.78
2023-05-13T17:07:20.572Z,100432.12
2023-05-13T17:09:47.567Z,100435.88
2023-05-13T17:12:14.429Z,100438.25
2023-05-13T17:19:51.475Z,100448.16
2023-05-13T17:22:18.094Z,100448.25
2023-05-13T17:24:44.630Z,100436.59
2023-05-13T17:27:11.390Z,100438.13
2023-05-13T17:29:39.855Z,100437.09
2023-05-13T17:32:06.900Z,100431.19
2023-05-13T17:34:33.489Z,100425.62
2023-05-13T17:37:00.267Z,100421.09
2023-05-13T17:44:50.977Z,100424.56
2023-05-13T17:47:17.567Z,100427.84
2023-05-13T17:49:44.113Z,100434.78
2023-05-13T17:52:10.865Z,100425.00
2023-05-13T17:58:23.881Z,100428.34
2023-05-13T18:00:50.569Z,100432.34
2023-05-13T18:03:17.511Z,100435.09
2023-05-13T18:05:44.207Z,100436.00
2023-05-13T18:08:11.179Z,100436.91
2023-05-13T18:10:37.845Z,100430.81
2023-05-13T18:13:04.428Z,100430.88
2023-05-13T18:15:31.126Z,100425.19
2023-05-13T18:17:57.808Z,100414.69
2023-05-13T18:20:24.731Z,100426.69
2023-05-13T18:22:51.436Z,100423.13
2023-05-13T18:25:18.123Z,100427.78
2023-05-13T18:27:44.732Z,100417.03
2023-05-13T18:30:11.884Z,100428.03
2023-05-13T18:32:38.483Z,100430.47
2023-05-13T18:35:05.568Z,100439.63
2023-05-13T18:37:32.120Z,100442.00
2023-05-13T18:39:59.183Z,100442.84
2023-05-13T18:42:26.231Z,100450.91
2023-05-13T18:44:52.778Z,100456.75
2023-05-13T18:47:19.464Z,100461.41
2023-05-13T18:53:39.560Z,100459.56
2023-05-13T18:55:10.876Z,100458.63
2023-05-13T18:57:37.559Z,100463.22
2023-05-13T19:00:04.555Z,100464.56
2023-05-13T19:02:31.592Z,100465.69
2023-05-13T19:04:58.547Z,100459.47
2023-05-13T19:07:25.196Z,100457.06
2023-05-13T19:09:51.785Z,100462.97
2023-05-13T19:12:18.334Z,100461.09
2023-05-13T19:14:45.013Z,100460.03
2023-05-13T19:17:11.812Z,100456.59
2023-05-13T19:19:38.456Z,100451.72
2023-05-13T19:22:05.310Z,100457.69
2023-05-13T19:24:31.887Z,100459.25
2023-05-13T19:26:58.595Z,100461.91
2023-05-13T19:29:25.178Z,100457.78
2023-05-13T19:31:52.794Z,100458.94
2023-05-13T19:34:19.477Z,100454.44
2023-05-13T19:36:46.596Z,100453.16
2023-05-13T19:39:13.246Z,100455.66
2023-05-13T19:41:40.623Z,100454.31
2023-05-13T19:44:07.407Z,100453.87
2023-05-13T19:46:34.102Z,100456.75
2023-05-13T19:49:00.766Z,100455.19
2023-05-13T19:51:27.387Z,100448.88
2023-05-13T19:53:53.963Z,100457.25
2023-05-13T19:56:21.820Z,100460.81
2023-05-13T19:58:48.728Z,100463.34
2023-05-13T20:01:15.292Z,100468.09
2023-05-13T20:03:42.049Z,100461.72
2023-05-13T20:06:08.868Z,100466.63
2023-05-13T20:08:35.901Z,100451.31
2023-05-13T20:11:02.612Z,100453.84
2023-05-13T20:13:29.149Z,100461.84
2023-05-13T20:15:55.721Z,100459.50
2023-05-13T20:18:22.317Z,100452.06
2023-05-13T20:20:48.892Z,100455.06
2023-05-13T20:23:15.506Z,100457.13
2023-05-13T20:25:42.151Z,100456.31
2023-05-13T20:28:24.414Z,100461.03
2023-05-13T20:30:55.655Z,100462.75
2023-05-13T20:33:22.222Z,100460.91
2023-05-13T20:35:49.078Z,100456.34
2023-05-13T20:39:08.856Z,100451.75
2023-05-13T20:42:10.955Z,100451.16
2023-05-13T20:44:37.774Z,100449.44
2023-05-13T20:47:05.058Z,100442.47
2023-05-13T20:49:31.880Z,100444.72
2023-05-13T20:52:03.327Z,100436.06
2023-05-13T20:54:29.936Z,100436.22
2023-05-13T20:56:56.595Z,100437.13
2023-05-13T20:59:23.148Z,100440.09
2023-05-13T21:01:49.749Z,100440.31
2023-05-13T21:04:16.570Z,100438.53
2023-05-13T21:06:43.821Z,100438.84
2023-05-13T21:09:10.408Z,100427.97
2023-05-13T21:11:37.009Z,100427.53
2023-05-13T21:14:18.901Z,100431.56
2023-05-13T21:16:45.410Z,100434.00
2023-05-13T21:19:24.859Z,100429.69
2023-05-13T21:21:51.420Z,100432.34
2023-05-13T21:28:17.009Z,100432.50
2023-05-13T21:30:43.655Z,100422.69
2023-05-13T21:33:10.949Z,100424.66
2023-05-13T21:35:37.488Z,100429.53
2023-05-13T21:38:11.595Z,100428.66
2023-05-13T21:40:39.091Z,100425.09
2023-05-13T21:43:05.682Z,100420.63
2023-05-13T21:45:32.232Z,100425.44
2023-05-13T21:47:58.898Z,100420.63
2023-05-13T21:50:25.564Z,100429.53
2023-05-13T21:52:52.219Z,100429.06
2023-05-13T21:55:18.872Z,100415.19
2023-05-13T22:00:29.322Z,100403.37
2023-05-13T22:03:00.463Z,100403.72
2023-05-13T22:05:27.660Z,100404.75
2023-05-13T22:11:51.367Z,100399.16
2023-05-13T22:14:17.960Z,100400.97
2023-05-13T22:16:49.849Z,100402.25
2023-05-13T22:19:21.258Z,100402.63
2023-05-13T22:21:47.982Z,100398.81
2023-05-13T22:24:14.625Z,100403.03
2023-05-13T22:26:43.684Z,100400.25
2023-05-13T22:29:10.315Z,100396.28
2023-05-13T22:31:36.979Z,100406.34
2023-05-13T22:34:03.678Z,100396.00
2023-05-13T22:36:31.360Z,100393.56
2023-05-13T22:38:58.019Z,100401.91
2023-05-13T22:43:59.814Z,100399.25
2023-05-13T22:46:26.468Z,100398.88
2023-05-13T22:48:53.578Z,100405.12
2023-05-13T22:52:13.084Z,100401.38
2023-05-13T22:57:52.794Z,100396.50
2023-05-13T23:00:20.012Z,100402.00
2023-05-13T23:02:46.616Z,100391.38
2023-05-13T23:05:13.269Z,100398.00
2023-05-13T23:07:39.844Z,100385.87
2023-05-13T23:10:06.875Z,100386.34
2023-05-13T23:12:33.477Z,100393.66
2023-05-13T23:15:00.075Z,100389.47
2023-05-13T23:17:26.707Z,100390.78
2023-05-13T23:19:53.293Z,100392.41
2023-05-13T23:22:19.834Z,100389.78
2023-05-13T23:24:46.504Z,100398.06
2023-05-13T23:27:32.074Z,100389.78
2023-05-13T23:29:59.246Z,100391.91
2023-05-13T23:32:26.070Z,100384.78
2023-05-13T23:34:52.683Z,100392.41
2023-05-13T23:37:50.384Z,100390.59
2023-05-13T23:40:40.953Z,100391.06
2023-05-13T23:43:07.512Z,100389.41
2023-05-13T23:45:34.197Z,100379.59
2023-05-13T23:48:00.974Z,100380.84
2023-05-13T23:50:27.635Z,100372.19
2023-05-13T23:58:11.088Z,100366.31
